熊本空港の過去48時間の天気

熊本空港 (Kumamoto)

現在時刻: 4/25 23:43 JST (4/25 14:43 UTC) 以下の時間は現地時間です。

過去48時間のMETAR気象情報
時間 風向 風速(m/s) 視程 気温(℃) 湿度(%) 気圧(hPa) 天気現象
25 21:00 4 10km以上 11 94 1012
25 20:00 北北東 4 10km以上 12 94 1011
25 19:00 北北東 4 10km以上 15 72 1010
25 18:00 北北東 4 10km以上 15 72 1010
25 17:00 北東 3 10km以上 16 72 1010
25 16:00 北北西 3 10km以上 15 82 1009
25 15:00 北西 4 10km以上 16 77 1009
25 14:00 3 10km以上 16 72 1009
25 13:00 北西 4 10km以上 15 88 1010
25 12:00 北北西 3 10km以上 15 88 1010
25 11:00 北西 4 10km以上 14 94 1010
25 10:00 北西 3 10km以上 14 94 1010
25 09:00 不定 2 10km以上 14 100 1010
25 08:00 北西 2 6,000m 13 100 1009 弱い雨
25 07:00 北北西 2 6,000m 12 100 1008
25 06:10 西北西 2 5,000m 12 100 1008 弱い雨 もや
24 21:00 北西 3 1,800m 15 100 1004 しゅう雨 もや 散在した霧
24 20:35 西北西 5 1,600m 16 100 1004 しゅう雨 もや 散在した霧
24 20:25 西 3 1,200m 17 100 1004 しゅう雨 もや 散在した霧
24 20:00 北西 3 1,500m 17 100 1003 しゅう雨 もや 散在した霧
24 19:35 北西 4 900m 18 100 1003 しゅう雨 霧
24 19:00 北北東 2 2,000m 19 100 1002 しゅう雨 もや 散在した霧
24 18:37 北北西 2 1,500m 19 100 1003 散在した霧 しゅう雨 もや
24 18:23 3 900m 19 100 1002 しゅう雨 霧
24 18:15 3 900m 19 100 1002 弱いしゅう雨 霧
24 18:09 3 900m 20 100 1002 弱いしゅう雨 霧
24 18:00 3 900m 20 100 1002 しゅう雨 霧
24 17:48 北北西 4 600m 20 100 1002 強いしゅう雨 霧
24 17:40 北北東 4 900m 20 100 1002 しゅう雨 霧
24 17:28 3 900m 20 100 1002 しゅう雨 霧
24 17:08 北北東 1 2,000m 20 100 1002 強いしゅう雨 もや 散在した霧
24 17:00 北東 2 3,000m 20 100 1002 しゅう雨 もや 散在した霧
24 16:35 不定 1 2,000m 20 100 1003 散在した霧 しゅう雨 もや
24 16:20 不定 1 5,000m 20 100 1003 しゅう雨 もや 散在した霧
24 16:00 不定 1 3,500m 20 100 1003 しゅう雨 もや 散在した霧
24 15:41 不定 1 2,500m 20 100 1004 散在した霧 しゅう雨 もや
24 15:26 2 1,200m 19 100 1004 散在した霧 しゅう雨 もや
24 15:12 東南東 2 1,500m 19 100 1004 弱いしゅう雨 もや 散在した霧
24 15:00 2 900m 19 100 1005 弱いしゅう雨 霧
24 14:42 2 2,000m 19 100 1005 散在した霧 しゅう雨 もや
24 14:37 南西 2 1,500m 19 100 1005 散在した霧 強いしゅう雨 もや
24 14:30 北西 3 800m 19 100 1005 強いしゅう雨 霧
24 14:19 北北西 3 900m 19 100 1004 しゅう雨 霧
24 14:13 不定 1 1,500m 19 100 1005 散在した霧 強いしゅう雨 もや
24 14:00 不定 1 2,000m 19 100 1005 散在した霧 しゅう雨 もや
24 13:50 不定 1 2,000m 19 100 1005 散在した霧 しゅう雨 もや
24 13:41 不定 1 1,500m 19 100 1005 散在した霧 強いしゅう雨 もや
24 13:11 2 2,500m 19 100 1006 しゅう雨 もや 散在した霧
24 13:00 南南西 2 1,500m 19 100 1006 しゅう雨 もや 散在した霧
24 12:49 南南西 2 1,500m 19 100 1006 散在した霧 強いしゅう雨 もや
24 12:39 不定 1 2,500m 19 100 1007 散在した霧 しゅう雨 もや
24 12:35 不定 1 2,500m 19 100 1007 散在した霧 しゅう雨 もや
24 12:28 西 3 900m 19 100 1007 強いしゅう雨 霧
24 12:24 西 3 500m 19 100 1007 強いしゅう雨 霧
24 12:14 不定 1 1,500m 19 100 1007 散在した霧 しゅう雨 もや
24 12:08 西南西 2 1,200m 19 100 1007 しゅう雨 もや
24 12:00 3 1,500m 19 100 1007 強いしゅう雨 もや
24 11:29 2 1,500m 19 100 1007 しゅう雨 もや
24 11:10 東北東 2 1,500m 19 100 1007 強いしゅう雨 もや
24 11:00 東北東 2 1,500m 19 100 1008 しゅう雨 もや
24 10:40 2 2,500m 19 100 1008 しゅう雨 もや
24 10:16 2 1,500m 19 100 1007 強いしゅう雨 もや
24 10:04 不定 1 4,500m 19 100 1008 弱いしゅう雨 もや
24 10:00 不定 1 3,000m 19 100 1008 弱いしゅう雨 もや
24 09:46 不定 1 1,500m 19 100 1007 強いしゅう雨 もや
24 09:20 不定 1 2,500m 19 100 1008 しゅう雨 もや
24 09:10 不定 1 1,500m 19 100 1008 強いしゅう雨 もや
24 09:00 不定 1 10km以上 20 94 1008 弱いしゅう雨
24 08:00 南南西 2 10km以上 20 88 1008 弱い雨
24 07:00 不定 2 10km以上 18 100 1008 弱い雨
24 06:10 2 10km以上 18 94 1008
RJFT 251200Z 01007KT CAVOK 11/10 Q1012
RJFT 251100Z 03007KT 9999 FEW040 SCT/// 12/11 Q1011
RJFT 251000Z 02007KT 9999 FEW025 BKN035 15/10 Q1010
RJFT 250900Z 03008KT 9999 FEW030 SCT040 BKN/// 15/10 Q1010
RJFT 250800Z 05005KT 340V080 9999 FEW020 BKN025 BKN035 16/11 Q1010
RJFT 250700Z 33006KT 290V040 9999 FEW025 BKN030 BKN040 15/12 Q1009
RJFT 250600Z 31007KT 270V360 9999 FEW010 SCT030 BKN040 16/12 Q1009
RJFT 250500Z 36005KT 300V030 9999 SCT015 BKN040 16/11 Q1009
RJFT 250400Z 32007KT 290V350 9999 FEW010 SCT015 BKN025 15/13 Q1010
RJFT 250300Z 33005KT 290V030 9999 FEW008 BKN010 BKN025 15/13 Q1010
RJFT 250200Z 32007KT 290V360 9999 FEW005 SCT010 BKN025 14/13 Q1010
RJFT 250100Z 32006KT 300V360 9999 FEW002 BKN010 BKN025 14/13 Q1010
RJFT 250000Z VRB03KT 9999 FEW001 SCT007 BKN010 14/14 Q1010
RJFT 242300Z 32003KT 6000 -RA FEW001 SCT006 BKN009 13/13 Q1009
RJFT 242200Z 33004KT 6000 FEW001 SCT006 BKN009 12/12 Q1008
RJFT 242110Z 29003KT 5000 -RA BR FEW001 SCT006 BKN008 12/12 Q1008 RMK 1ST001 3ST006 7ST008 A2977
RJFT 241200Z 31006KT 1800 SHRA BR BCFG FEW001 SCT003 BKN004 15/15 Q1004
RJFT 241135Z 29009KT 1600 SHRA BR BCFG FEW001 SCT002 BKN003 16/16 Q1004 RMK 1ST001 3ST002 6ST003 A2966 FG ALL QUAD
RJFT 241125Z 27006KT 240V310 1200 R07/P1800N SHRA BR BCFG FEW001 BKN002 BKN005 17/17 Q1004 RMK 2ST001 5ST002 6ST005 A2965 FG ALL QUAD
RJFT 241100Z 31005KT 280V350 1500 R07/P1800N SHRA BR BCFG FEW001 SCT002 BKN006 17/17 Q1003
RJFT 241035Z 32007KT 0900 R07/1100VP1800D SHRA FG FEW001 BKN002 BKN006 18/18 Q1003 RMK 1ST001 5ST002 6ST006 A2962
RJFT 241000Z 02004KT 2000 SHRA BR BCFG FEW001 SCT005 BKN008 19/19 Q1002
RJFT 240937Z 34004KT 290V010 1500 R07/1700U SHRA BR BCFG FEW001 SCT002 BKN006 19/19 Q1003 RMK 2ST001 4ST002 6ST006 A2962 FG ALL QUAD
RJFT 240923Z 35006KT 0900 R07/0900VP1800U SHRA FG FEW001 SCT002 BKN004 19/19 Q1002 RMK 2ST001 3ST002 6ST004 A2961
RJFT 240915Z 35006KT 300V030 0900 R07/0800V1500U -SHRA FG FEW001 SCT002 BKN006 19/19 Q1002 RMK 2ST001 3ST002 6ST006 A2961
RJFT 240909Z 35006KT 320V030 0900 R07/0800VP1800D -SHRA FG FEW001 SCT003 BKN006 20/20 Q1002 RMK 2ST001 3ST003 6ST006 A2961
RJFT 240900Z 35005KT 0900 R07/P1800N SHRA FG FEW001 SCT003 BKN006 20/20 Q1002
RJFT 240848Z 34007KT 280V030 0600 R07/1000VP1800U +SHRA FG FEW001 SCT003 BKN006 20/20 Q1002 RMK 2ST001 3ST003 6ST006 A2961
RJFT 240840Z 02008KT 0900 R07/1000VP1800D SHRA FG FEW001 SCT003 BKN006 20/20 Q1002 RMK 2ST001 3ST003 6ST006 A2960
RJFT 240828Z 35005KT 310V020 0900 R07/1400VP1800D SHRA FG FEW001 SCT003 BKN006 20/20 Q1002 RMK 2ST001 3ST003 6ST006 A2961
RJFT 240808Z 03002KT 2000 +SHRA BR BCFG FEW001 SCT010 BKN025 20/20 Q1002 RMK 1ST001 3CU010 6CU025 A2961 FG ALL QUAD
RJFT 240800Z 04003KT 3000 SHRA BR BCFG FEW001 SCT010 BKN025 20/20 Q1002
RJFT 240735Z VRB02KT 2000 R07/1300VP1800D SHRA BR BCFG FEW001 SCT010 BKN025 20/20 Q1003 RMK 1ST001 3CU010 6CU025 A2963 FG ALL QUAD
RJFT 240720Z VRB02KT 5000 SHRA BR BCFG FEW001 SCT010 BKN035 20/20 Q1003 RMK 1ST001 3CU010 6CU035 A2963 FG ALL QUAD
RJFT 240700Z VRB02KT 3500 SHRA BR BCFG FEW001 BKN010 BKN020 20/20 Q1003
RJFT 240641Z VRB02KT 2500 R07/1800D SHRA BR BCFG FEW001 BKN010 BKN015 20/20 Q1004 RMK 1ST001 5CU010 6CU015 A2965 FG ALL QUAD
RJFT 240626Z 10003KT 050V180 1200 R07/P1800U SHRA BR BCFG FEW001 SCT003 BKN010 19/19 Q1004 RMK 2ST001 4ST003 6CU010 A2966 FG ALL QUAD
RJFT 240612Z 12004KT 080V160 1500 R07/P1800N -SHRA BR BCFG FEW001 SCT002 BKN004 19/19 Q1004 RMK 2ST001 4ST002 6ST004 A2967 FG ALL QUAD
RJFT 240600Z 18003KT 130V230 0900 R07/P1800N -SHRA FG FEW001 SCT002 BKN004 19/19 Q1005
RJFT 240542Z 19003KT 140V240 2000 R07/0900VP1800U SHRA BR BCFG FEW001 SCT003 BKN008 19/19 Q1005 RMK 2ST001 3ST003 6ST008 A2969 FG ALL QUAD
RJFT 240537Z 23004KT 170V320 1500 R07/0650VP1800U +SHRA BR BCFG FEW001 SCT003 BKN008 19/19 Q1005 RMK 2ST001 3ST003 6ST008 A2969 FG ALL QUAD
RJFT 240530Z 31006KT 230V350 0800 R07/0650V1600D +SHRA FG FEW001 SCT003 BKN005 19/19 Q1005 RMK 2ST001 3ST003 6ST005 A2969 RI++
RJFT 240519Z 33005KT 230V030 0900 R07/1000VP1800N SHRA FG FEW001 SCT003 BKN005 19/19 Q1004 RMK 2ST001 3ST003 6ST005 A2966
RJFT 240513Z VRB02KT 1500 R07/1000VP1800D +SHRA BR BCFG FEW001 SCT006 BKN015 19/19 Q1005 RMK 2ST001 3ST006 6CU015 A2968 FG ALL QUAD
RJFT 240500Z VRB02KT 2000 R07/1300VP1800D SHRA BR BCFG FEW001 SCT006 BKN010 19/19 Q1005
RJFT 240450Z VRB01KT 2000 R07/0750VP1800U SHRA BR BCFG FEW001 SCT006 BKN010 19/19 Q1005 RMK 1ST001 3ST006 6CU010 A2969 FG ALL QUAD
RJFT 240441Z VRB02KT 1500 R07/0700VP1800D +SHRA BR BCFG FEW001 SCT003 BKN006 19/19 Q1005 RMK 1ST001 3ST003 6ST006 A2970 FG ALL QUAD RI++
RJFT 240411Z 18003KT 110V250 2500 SHRA BR BCFG FEW001 SCT002 BKN003 19/19 Q1006 RMK 1ST001 3ST002 6ST003 A2972 FG ALL QUAD
RJFT 240400Z 20003KT 160V250 1500 R07/1200VP1800N SHRA BR BCFG FEW001 SCT002 BKN003 19/19 Q1006
RJFT 240349Z 21004KT 160V250 1500 R07/1100VP1800D +SHRA BR BCFG FEW001 SCT002 BKN003 19/19 Q1006 RMK 2ST001 3ST002 5ST003 A2973 FG ALL QUAD
RJFT 240339Z VRB02KT 2500 R07/1100VP1800U SHRA BR BCFG FEW001 SCT002 BKN004 FEW020CB 19/19 Q1007 RMK 2ST001 3ST002 5ST004 2CB020 A2974 CB 15KM SE AND SW MOV NE FG ALL QUAD
RJFT 240335Z VRB02KT 2500 R07/0450VP1800U SHRA BR BCFG FEW001 SCT002 BKN006 FEW020CB 19/19 Q1007 RMK 2ST001 3ST002 5ST006 2CB020 A2974 CB 15KM NE-SE MOV NE FG ALL QUAD
RJFT 240328Z 28006KT 0900 R07/0450V1600D +SHRA FG FEW001 SCT002 BKN004 BKN020CB 19/19 Q1007 RMK 2ST001 3ST002 5ST004 5CB020 A2974 CB OHD MOV NE RI++
RJFT 240324Z 28005KT 0500 R07/0550VP1800D +SHRA FG FEW001 SCT002 BKN005 BKN020CB 19/19 Q1007 RMK 2ST001 3ST002 7ST005 5CB020 A2975 CB OHD MOV NE RI++
RJFT 240314Z VRB02KT 1500 R07/1500VP1800U SHRA BR BCFG FEW001 SCT003 BKN007 FEW020CB 19/19 Q1007 RMK 1ST001 3ST003 7ST007 2CB020 A2974 CB 10KM SW-NW MOV NE FG ALL QUAD
RJFT 240308Z 25004KT 180V290 1200 R07/1400V1800U SHRA BR FEW001 SCT005 BKN008 19/19 Q1007 RMK 1ST001 3ST005 7ST008 A2974
RJFT 240300Z VRB06KT 1500 R07/1700D +SHRA BR FEW001 SCT007 BKN030 19/19 Q1007
RJFT 240229Z 10004KT 1500 R07/P1800N SHRA BR FEW001 BKN010 BKN030 19/19 Q1007 RMK 1ST001 5CU010 7CU030 A2975
RJFT 240210Z 07004KT 030V110 1500 R07/1300VP1800D +SHRA BR FEW001 BKN010 BKN030 19/19 Q1007 RMK 1ST001 5CU010 7CU030 A2976
RJFT 240200Z 07004KT 030V100 1500 R07/1000VP1800D SHRA BR FEW001 SCT010 BKN030 19/19 Q1008
RJFT 240140Z 01003KT 300V070 2500 R07/1600VP1800N SHRA BR FEW001 SCT010 BKN040 19/19 Q1008 RMK 1ST001 3CU010 7CU040 A2978
RJFT 240116Z 08004KT 1500 R07/1200VP1800D +SHRA BR FEW003 SCT025 BKN040 19/19 Q1007 RMK 1ST003 3CU025 7CU040 A2976
RJFT 240104Z VRB02KT 4500 R07/0750VP1800U -SHRA BR FEW003 SCT025 BKN040 19/19 Q1008 RMK 1ST003 3CU025 7CU040 A2977
RJFT 240100Z VRB01KT 3000 R07/0650VP1800U -SHRA BR FEW003 SCT025 BKN040 19/19 Q1008
RJFT 240046Z VRB02KT 1500 R07/1300VP1800D +SHRA BR FEW003 SCT020 BKN040 19/19 Q1007 RMK 1ST003 3CU020 7CU040 A2976
RJFT 240020Z VRB02KT 2500 R07/1100VP1800U SHRA BR FEW015 SCT025 BKN040 19/19 Q1008 RMK 1CU015 3CU025 7CU040 A2977
RJFT 240010Z VRB02KT 1500 R07/1200VP1800D +SHRA BR FEW015 BKN035 19/19 Q1008 RMK 1CU015 7CU035 A2977
RJFT 240000Z VRB01KT 9999 -SHRA FEW030 BKN040 BKN050 20/19 Q1008
RJFT 232300Z 21004KT 9999 -RA FEW030 BKN050 20/18 Q1008
RJFT 232200Z VRB03KT 9999 -RA FEW030 BKN050 18/18 Q1008
RJFT 232110Z 10004KT 070V170 9999 FEW030 BKN050 18/17 Q1008 RMK 1CU030 7SC050 A2979